Fort McMurray Airport
CYMM : now visible

Airfield :











YOU CAN JOIN US ON...

 
LOGIN :

Register | Disclaimer

   EN    FR    IT 

 









Legend :    VFR   Marginal VFR   IFR   Intensive IFR   Very Intensive IFR
Visi :
Ceiling :
>= 8 km
>= 3000ft
5 to 8 km
1000 to 3000 ft
1500m to 5 km
500 to 1000 ft
800 to 1500m
200 to 500 ft
< 800m
< 200 ft
Symbols :   Thunderstorms  Fog  Heavy snow  Heavy precipitations  Wind > 20 kt






- Airport Elevation : 1211 ft
- IATA code : YMM


CYMM - Fort McMurray

CURRENT METAR :
  • 301100Z AUTO 29004KT 9SM CLR M21/M23 A3018 RMK SLP263

EXPIRED METARs :
  • 301008Z AUTO 31008KT 9SM SCT018 M20/M23 A3017 RMK SLP262
  • 301000Z AUTO 31007KT 9SM BKN018 M20/M23 A3017 RMK SLP259
  • 300921Z AUTO 31008KT 9SM BKN018 M19/M23 A3016 RMK SLP257
  • 300900Z AUTO 29006KT 9SM CLR M19/M22 A3015 RMK SLP254
  • 300847Z AUTO 29006KT 9SM SCT022 M19/M22 A3015 RMK SLP254

TAF TAF CYMM
Valid from the 30 at 07:00 until the 30 at 19:00 UTC


300640Z 3007/3019 32008KT P6SM OVC025
TEMPO 3007/3010 5SM -SN OVC015
FM301000 29008KT P6SM SCT020
TEMPO 3010/3012 6SM -SN BKN020
BECMG 3012/3014 26008KT SKC RMK FCST BASED ON AUTO OBS. NXT FCST BY 301300Z
CZEG FIR / North America



MET'MAP, your aeronautical weather chart ! - Copyright ORBIFLY December 2007 - Disclaimer

ORBIFLY MET'MAP TEAM :

Programming & Development : Alexandra Zaïnal
Original concept : Baudouin d'Aumeries
Technical & hardware support : Manuel Goepfert
Assistance : Marc-Olivier Méhu




SOURCES & CREDITS :

   NOAA       Earth
Advisory